Terminal Aerodrome Forecast
Issued by NWS Cleveland, OH

Home | Current Version | Previous Version | Text Only | Print | Product List | Glossary On
Versions: 1 2 3 4 5 6 7 8 9 10 11 12 13 14 15 16 17 18
000
FTUS41 KCLE 292321
TAFYNG
TAF
KYNG 292321Z 3000/3024 22009KT P6SM VCTS BKN050CB
     FM300200 18010KT P6SM SCT150
      TEMPO 3010/3013 4SM BR
     FM301400 20010KT P6SM SCT035
     FM301600 22012G20KT P6SM BKN045
     FM302100 21012G20KT P6SM BKN250=

USA.gov is the U.S. government's official web portal to all federal, state and local government web resources and services.